createdAt,value
2022-10-30T00:00:31.906Z,92.10
2022-10-30T00:03:17.946Z,92.20
2022-10-30T00:06:06.246Z,92.20
2022-10-30T00:08:52.739Z,92.10
2022-10-30T00:11:38.606Z,92.20
2022-10-30T00:14:24.631Z,92.50
2022-10-30T00:17:10.732Z,92.50
2022-10-30T00:19:56.735Z,92.30
2022-10-30T00:22:42.714Z,92.30
2022-10-30T00:25:28.537Z,92.30
2022-10-30T00:28:14.515Z,92.40
2022-10-30T00:31:05.084Z,92.40
2022-10-30T00:33:52.413Z,92.70
2022-10-30T00:36:38.370Z,92.50
2022-10-30T00:39:25.071Z,92.70
2022-10-30T00:42:16.199Z,92.60
2022-10-30T00:45:02.308Z,92.50
2022-10-30T00:47:55.302Z,92.70
2022-10-30T00:50:41.741Z,92.70
2022-10-30T00:53:29.117Z,92.90
2022-10-30T00:56:18.366Z,92.90
2022-10-30T00:59:09.609Z,92.90
2022-10-30T01:01:56.507Z,92.50
2022-10-30T01:04:45.152Z,92.00
2022-10-30T01:07:31.103Z,92.30
2022-10-30T01:10:17.935Z,92.10
2022-10-30T01:13:04.827Z,92.50
2022-10-30T01:16:25.987Z,92.60
2022-10-30T01:19:49.681Z,92.70
2022-10-30T01:22:56.051Z,92.90
2022-10-30T01:26:06.612Z,92.90
2022-10-30T01:29:19.808Z,92.80
2022-10-30T01:32:12.460Z,92.90
2022-10-30T01:35:21.009Z,93.00
2022-10-30T01:38:23.791Z,92.80
2022-10-30T01:41:12.715Z,92.80
2022-10-30T01:44:06.568Z,92.90
2022-10-30T01:46:58.945Z,92.80
2022-10-30T01:49:57.987Z,93.10
2022-10-30T01:53:00.284Z,93.00
2022-10-30T01:56:24.651Z,93.20
2022-10-30T02:00:02.458Z,91.90
2022-10-30T02:02:59.534Z,92.30
2022-10-30T02:05:49.936Z,93.00
2022-10-30T02:08:37.760Z,92.90
2022-10-30T02:11:27.719Z,93.20
2022-10-30T02:14:18.511Z,93.10
2022-10-30T02:17:08.289Z,93.40
2022-10-30T02:19:55.103Z,93.90
2022-10-30T02:22:43.079Z,93.70
2022-10-30T02:25:29.576Z,93.80
2022-10-30T02:28:15.427Z,94.00
2022-10-30T02:31:01.316Z,94.00
2022-10-30T02:33:47.832Z,93.70
2022-10-30T02:36:34.078Z,93.50
2022-10-30T02:39:21.378Z,93.30
2022-10-30T02:42:07.751Z,93.30
2022-10-30T02:44:53.865Z,93.60
2022-10-30T02:47:39.829Z,93.60
2022-10-30T02:50:25.770Z,93.50
2022-10-30T02:53:11.761Z,93.80
2022-10-30T02:56:13.866Z,94.00
2022-10-30T02:59:00.983Z,94.30
2022-10-30T03:01:47.859Z,94.80
2022-10-30T03:04:34.130Z,95.00
2022-10-30T03:07:20.023Z,94.90
2022-10-30T03:10:06.383Z,94.00
2022-10-30T03:12:52.672Z,94.90
2022-10-30T03:15:38.800Z,94.80
2022-10-30T03:18:25.252Z,94.70
2022-10-30T03:21:14.083Z,95.00
2022-10-30T03:23:59.982Z,94.30
2022-10-30T03:26:47.580Z,94.00
2022-10-30T03:29:33.737Z,93.50
2022-10-30T03:32:22.264Z,93.70
2022-10-30T03:35:13.260Z,94.10
2022-10-30T03:37:59.421Z,94.20
2022-10-30T03:40:45.182Z,94.40
2022-10-30T03:43:31.540Z,94.70
2022-10-30T03:46:17.760Z,94.90
2022-10-30T03:49:03.573Z,95.10
2022-10-30T03:51:49.487Z,94.90
2022-10-30T03:54:35.352Z,94.80
2022-10-30T03:57:21.243Z,94.60
2022-10-30T04:00:35.239Z,94.60
2022-10-30T04:03:22.812Z,94.70
2022-10-30T04:06:09.837Z,94.80
2022-10-30T04:08:55.925Z,94.70
2022-10-30T04:11:44.263Z,94.70
2022-10-30T04:14:30.716Z,94.70
2022-10-30T04:17:16.714Z,93.40
2022-10-30T04:20:02.578Z,92.80
2022-10-30T04:23:03.340Z,93.10
2022-10-30T04:25:50.073Z,93.80
2022-10-30T04:28:36.991Z,94.20
2022-10-30T04:31:24.165Z,94.80
2022-10-30T04:34:12.008Z,94.60
2022-10-30T04:36:57.824Z,94.90
2022-10-30T04:39:46.405Z,95.10
2022-10-30T04:42:38.724Z,95.40
2022-10-30T04:45:24.936Z,95.20
2022-10-30T04:48:16.679Z,94.40
2022-10-30T04:51:03.558Z,93.70
2022-10-30T04:53:49.752Z,94.00
2022-10-30T04:56:35.628Z,94.60
2022-10-30T04:59:22.451Z,94.70
2022-10-30T05:02:12.176Z,94.90
2022-10-30T05:04:58.637Z,95.10
2022-10-30T05:07:44.735Z,94.70
2022-10-30T05:10:31.760Z,94.60
2022-10-30T05:13:17.770Z,94.60
2022-10-30T05:16:03.770Z,94.70
2022-10-30T05:18:51.191Z,94.90
2022-10-30T05:21:37.173Z,95.20
2022-10-30T05:24:24.096Z,94.80
2022-10-30T05:27:10.048Z,94.80
2022-10-30T05:29:56.411Z,94.80
2022-10-30T05:32:42.364Z,94.50
2022-10-30T05:35:29.619Z,93.70
2022-10-30T05:38:16.565Z,94.10
2022-10-30T05:41:02.903Z,94.40
2022-10-30T05:43:49.346Z,94.90
2022-10-30T05:46:35.915Z,94.80
2022-10-30T05:49:33.592Z,94.90
2022-10-30T05:52:24.265Z,94.30
2022-10-30T05:55:11.237Z,95.10
2022-10-30T05:58:20.399Z,94.90
2022-10-30T06:01:08.445Z,95.00
2022-10-30T06:04:00.744Z,95.40
2022-10-30T06:06:47.089Z,95.60
2022-10-30T06:09:33.178Z,95.50
2022-10-30T06:12:42.059Z,95.70
2022-10-30T06:15:42.903Z,95.50
2022-10-30T06:18:29.746Z,95.60
2022-10-30T06:21:25.117Z,95.00
2022-10-30T06:24:31.323Z,95.00
2022-10-30T06:27:35.768Z,94.70
2022-10-30T06:30:22.992Z,95.10
2022-10-30T06:33:10.878Z,94.80
2022-10-30T06:36:00.071Z,94.70
2022-10-30T06:38:46.618Z,95.20
2022-10-30T06:41:36.764Z,95.30
2022-10-30T06:45:01.424Z,95.00
2022-10-30T06:47:48.027Z,95.10
2022-10-30T06:50:34.425Z,94.90
2022-10-30T06:53:20.296Z,95.00
2022-10-30T06:56:07.015Z,94.80
2022-10-30T06:59:11.732Z,94.80
2022-10-30T07:02:14.139Z,94.50
2022-10-30T07:05:07.253Z,93.80
2022-10-30T07:07:56.634Z,93.30
2022-10-30T07:10:43.440Z,92.60
2022-10-30T07:13:48.249Z,92.00
2022-10-30T07:17:06.361Z,91.90
2022-10-30T07:19:52.716Z,91.60
2022-10-30T07:22:39.336Z,91.30
2022-10-30T07:25:27.439Z,90.80
2022-10-30T07:28:36.372Z,90.90
2022-10-30T07:31:57.465Z,90.70
2022-10-30T07:35:03.244Z,90.90
2022-10-30T07:38:11.648Z,90.80
2022-10-30T07:41:07.662Z,91.10
2022-10-30T07:44:08.897Z,91.10
2022-10-30T07:47:06.020Z,91.20
2022-10-30T07:50:05.161Z,91.30
2022-10-30T07:52:52.940Z,91.00
2022-10-30T07:55:43.903Z,90.50
2022-10-30T07:58:32.932Z,90.30
2022-10-30T08:01:37.895Z,87.00
2022-10-30T08:04:37.923Z,87.00
2022-10-30T08:07:38.035Z,87.00
2022-10-30T08:10:24.763Z,85.80
2022-10-30T08:13:10.895Z,86.20
2022-10-30T08:15:57.750Z,87.10
2022-10-30T08:18:44.847Z,87.00
2022-10-30T08:21:31.029Z,87.10
2022-10-30T08:24:19.458Z,86.60
2022-10-30T08:27:07.601Z,86.60
2022-10-30T08:29:54.644Z,84.80
2022-10-30T08:32:40.487Z,83.80
2022-10-30T08:35:54.477Z,83.20
2022-10-30T08:38:40.576Z,83.00
2022-10-30T08:42:02.181Z,81.70
2022-10-30T08:44:57.653Z,81.50
2022-10-30T08:48:15.871Z,79.90
2022-10-30T08:51:03.858Z,79.80
2022-10-30T08:53:55.261Z,78.60
2022-10-30T08:56:41.320Z,78.80
2022-10-30T08:59:30.684Z,78.30
2022-10-30T09:02:18.817Z,77.20
2022-10-30T09:05:25.452Z,78.00
2022-10-30T09:08:37.484Z,75.70
2022-10-30T09:11:28.842Z,75.80
2022-10-30T09:14:16.172Z,75.40
2022-10-30T09:17:02.130Z,75.50
2022-10-30T09:19:49.603Z,75.60
2022-10-30T09:22:43.255Z,75.60
2022-10-30T09:25:30.060Z,74.30
2022-10-30T09:28:34.950Z,73.90
2022-10-30T09:31:41.272Z,74.50
2022-10-30T09:34:33.033Z,73.30
2022-10-30T09:37:38.788Z,73.20
2022-10-30T09:41:11.907Z,71.80
2022-10-30T09:44:29.987Z,71.10
2022-10-30T09:47:24.390Z,70.80
2022-10-30T09:50:37.179Z,70.00
2022-10-30T09:53:36.131Z,70.70
2022-10-30T09:56:39.871Z,69.40
2022-10-30T09:59:50.617Z,68.80
2022-10-30T10:02:56.211Z,67.60
2022-10-30T10:05:48.318Z,66.40
2022-10-30T10:09:09.652Z,66.80
2022-10-30T10:12:26.264Z,67.30
2022-10-30T10:15:34.944Z,65.40
2022-10-30T10:21:26.519Z,65.90
2022-10-30T10:24:33.950Z,65.20
2022-10-30T10:27:53.568Z,63.90
2022-10-30T10:30:49.637Z,64.20
2022-10-30T10:33:44.560Z,65.60
2022-10-30T10:36:53.862Z,65.30
2022-10-30T10:40:11.694Z,63.90
2022-10-30T10:43:35.615Z,64.60
2022-10-30T10:46:56.084Z,62.50
2022-10-30T10:49:57.363Z,62.70
2022-10-30T10:52:49.656Z,61.70
2022-10-30T10:55:38.545Z,62.40
2022-10-30T10:58:33.386Z,61.80
2022-10-30T11:01:43.478Z,61.80
2022-10-30T11:04:37.065Z,62.10
2022-10-30T11:07:24.068Z,62.70
2022-10-30T11:10:14.409Z,64.00
2022-10-30T11:13:00.795Z,63.50
2022-10-30T11:16:05.728Z,64.80
2022-10-30T11:18:57.603Z,61.90
2022-10-30T11:21:49.760Z,62.50
2022-10-30T11:24:36.400Z,61.80
2022-10-30T11:27:26.471Z,62.80
2022-10-30T11:30:21.282Z,61.60
2022-10-30T11:33:23.388Z,61.80
2022-10-30T11:36:15.476Z,60.70
2022-10-30T11:39:24.910Z,61.20
2022-10-30T11:42:17.399Z,59.60
2022-10-30T11:45:04.808Z,59.90
2022-10-30T11:47:52.333Z,60.60
2022-10-30T11:50:38.385Z,59.70
2022-10-30T11:53:56.288Z,59.40
2022-10-30T11:56:46.383Z,57.70
2022-10-30T11:59:32.565Z,58.80
2022-10-30T12:02:22.866Z,58.10
2022-10-30T12:05:43.728Z,57.80
2022-10-30T12:08:32.593Z,59.30
2022-10-30T12:11:19.271Z,57.90
2022-10-30T12:14:05.899Z,57.20
2022-10-30T12:16:55.277Z,53.40
2022-10-30T12:19:55.337Z,53.60
2022-10-30T12:22:41.935Z,51.80
2022-10-30T12:25:31.575Z,50.00
2022-10-30T12:28:21.572Z,49.10
2022-10-30T12:31:17.815Z,49.00
2022-10-30T12:34:20.287Z,48.30
2022-10-30T12:37:33.253Z,48.40
2022-10-30T12:40:27.796Z,48.50
2022-10-30T12:43:23.757Z,47.70
2022-10-30T12:46:28.093Z,48.50
2022-10-30T12:49:46.211Z,50.90
2022-10-30T12:52:37.512Z,51.40
2022-10-30T12:55:46.251Z,50.80
2022-10-30T12:58:53.677Z,51.30
2022-10-30T13:01:43.902Z,52.30
2022-10-30T13:04:36.471Z,52.80
2022-10-30T13:07:40.760Z,52.70
2022-10-30T13:10:50.956Z,52.50
2022-10-30T13:13:58.126Z,51.90
2022-10-30T13:16:44.269Z,51.70
2022-10-30T13:19:30.241Z,51.30
2022-10-30T13:22:21.972Z,51.90
2022-10-30T13:25:20.345Z,53.20
2022-10-30T13:28:24.814Z,54.40
2022-10-30T13:31:22.310Z,54.80
2022-10-30T13:34:47.136Z,55.10
2022-10-30T13:37:33.327Z,54.40
2022-10-30T13:40:26.468Z,54.10
2022-10-30T13:43:18.359Z,52.30
2022-10-30T13:46:52.404Z,51.30
2022-10-30T13:49:46.807Z,50.70
2022-10-30T13:52:36.860Z,50.10
2022-10-30T13:55:26.575Z,51.40
2022-10-30T13:58:43.379Z,50.80
2022-10-30T14:01:50.904Z,52.10
2022-10-30T14:04:45.906Z,52.00
2022-10-30T14:08:06.214Z,51.60
2022-10-30T14:11:00.337Z,50.60
2022-10-30T14:13:58.448Z,49.60
2022-10-30T14:16:46.742Z,50.70
2022-10-30T14:19:32.881Z,51.10
2022-10-30T14:22:23.589Z,50.00
2022-10-30T14:25:15.056Z,49.60
2022-10-30T14:28:01.852Z,50.10
2022-10-30T14:31:01.000Z,50.90
2022-10-30T14:33:57.399Z,51.80
2022-10-30T14:36:43.592Z,52.40
2022-10-30T14:39:30.398Z,53.00
2022-10-30T14:42:37.728Z,53.70
2022-10-30T14:45:32.729Z,55.00
2022-10-30T14:48:29.328Z,56.30
2022-10-30T14:51:23.148Z,57.50
2022-10-30T14:54:38.675Z,58.10
2022-10-30T14:57:48.201Z,59.20
2022-10-30T15:00:37.507Z,59.90
2022-10-30T15:03:54.499Z,60.80
2022-10-30T15:06:50.225Z,61.70
2022-10-30T15:09:47.747Z,63.00
2022-10-30T15:13:11.881Z,63.70
2022-10-30T15:16:05.169Z,64.60
2022-10-30T15:19:07.282Z,65.60
2022-10-30T15:21:55.564Z,66.10
2022-10-30T15:24:41.805Z,66.40
2022-10-30T15:27:28.612Z,67.20
2022-10-30T15:30:20.331Z,67.40
2022-10-30T15:33:20.775Z,67.60
2022-10-30T15:36:38.948Z,68.40
2022-10-30T15:39:25.634Z,68.60
2022-10-30T15:42:12.257Z,68.90
2022-10-30T15:44:58.292Z,69.80
2022-10-30T15:47:48.203Z,70.70
2022-10-30T15:50:35.184Z,71.40
2022-10-30T15:53:25.726Z,72.30
2022-10-30T15:56:28.531Z,73.30
2022-10-30T15:59:25.647Z,74.00
2022-10-30T16:02:21.894Z,74.30
2022-10-30T16:05:21.617Z,75.10
2022-10-30T16:08:22.048Z,75.30
2022-10-30T16:11:08.023Z,76.10
2022-10-30T16:13:53.908Z,76.20
2022-10-30T16:16:39.979Z,76.70
2022-10-30T16:19:29.981Z,77.50
2022-10-30T16:22:23.881Z,78.30
2022-10-30T16:25:12.974Z,78.40
2022-10-30T16:27:59.902Z,78.70
2022-10-30T16:30:46.217Z,79.20
2022-10-30T16:33:35.379Z,80.10
2022-10-30T16:36:21.416Z,80.70
2022-10-30T16:39:09.638Z,81.00
2022-10-30T16:42:00.269Z,80.70
2022-10-30T16:44:46.425Z,81.50
2022-10-30T16:47:37.073Z,82.30
2022-10-30T16:50:23.221Z,82.30
2022-10-30T16:53:30.333Z,82.80
2022-10-30T16:56:24.509Z,82.60
2022-10-30T16:59:18.172Z,83.70
2022-10-30T17:02:14.423Z,84.40
2022-10-30T17:05:25.921Z,84.60
2022-10-30T17:08:18.193Z,85.00
2022-10-30T17:11:06.701Z,85.20
2022-10-30T17:13:52.587Z,85.80
2022-10-30T17:16:40.014Z,85.20
2022-10-30T17:19:32.084Z,85.90
2022-10-30T17:22:20.907Z,85.70
2022-10-30T17:25:28.264Z,85.90
2022-10-30T17:28:34.455Z,86.30
2022-10-30T17:31:20.460Z,86.60
2022-10-30T17:34:14.453Z,87.30
2022-10-30T17:37:00.511Z,87.40
2022-10-30T17:39:46.366Z,87.80
2022-10-30T17:42:32.159Z,87.50
2022-10-30T17:45:18.340Z,86.90
2022-10-30T17:48:15.937Z,87.30
2022-10-30T17:51:01.713Z,87.90
2022-10-30T17:53:48.445Z,88.30
2022-10-30T17:56:34.752Z,88.30
2022-10-30T17:59:20.567Z,89.40
2022-10-30T18:02:17.832Z,89.60
2022-10-30T18:05:09.006Z,89.80
2022-10-30T18:07:55.271Z,90.00
2022-10-30T18:10:41.557Z,90.40
2022-10-30T18:13:27.505Z,90.20
2022-10-30T18:16:15.599Z,90.30
2022-10-30T18:19:01.792Z,90.50
2022-10-30T18:21:48.519Z,90.80
2022-10-30T18:24:34.726Z,90.60
2022-10-30T18:27:20.645Z,90.60
2022-10-30T18:30:07.313Z,90.60
2022-10-30T18:32:53.525Z,91.20
2022-10-30T18:35:40.637Z,91.30
2022-10-30T18:38:26.722Z,91.40
2022-10-30T18:41:15.457Z,91.50
2022-10-30T18:44:01.533Z,91.20
2022-10-30T18:46:47.565Z,91.00
2022-10-30T18:49:34.372Z,91.10
2022-10-30T18:52:20.359Z,91.00
2022-10-30T18:55:24.496Z,91.30
2022-10-30T18:58:11.470Z,90.80
2022-10-30T19:01:13.169Z,91.10
2022-10-30T19:04:03.794Z,91.10
2022-10-30T19:06:50.918Z,91.30
2022-10-30T19:09:37.113Z,91.40
2022-10-30T19:12:23.135Z,91.50
2022-10-30T19:15:23.740Z,91.30
2022-10-30T19:18:10.420Z,91.20
2022-10-30T19:21:06.517Z,91.30
2022-10-30T19:23:56.255Z,91.60
2022-10-30T19:26:42.551Z,91.40
2022-10-30T19:29:28.467Z,91.90
2022-10-30T19:32:14.467Z,92.10
2022-10-30T19:35:00.549Z,92.50
2022-10-30T19:37:46.868Z,92.60
2022-10-30T19:40:35.218Z,91.70
2022-10-30T19:43:21.210Z,92.20
2022-10-30T19:46:08.805Z,92.30
2022-10-30T19:48:57.810Z,92.50
2022-10-30T19:51:44.950Z,92.30
2022-10-30T19:54:32.063Z,92.60
2022-10-30T20:00:30.129Z,93.00
2022-10-30T20:03:18.177Z,92.50
2022-10-30T20:06:04.535Z,92.80
2022-10-30T20:08:50.528Z,93.10
2022-10-30T20:11:36.350Z,93.10
2022-10-30T20:14:22.126Z,93.40
2022-10-30T20:17:14.968Z,93.50
2022-10-30T20:20:01.053Z,93.30
2022-10-30T20:22:47.491Z,93.20
2022-10-30T20:25:33.836Z,93.40
2022-10-30T20:28:40.540Z,93.40
2022-10-30T20:31:26.934Z,93.40
2022-10-30T20:34:13.090Z,93.10
2022-10-30T20:36:59.000Z,93.20
2022-10-30T20:39:44.967Z,93.50
2022-10-30T20:42:36.866Z,93.80
2022-10-30T20:45:25.735Z,93.90
2022-10-30T20:48:12.710Z,94.00
2022-10-30T20:50:59.873Z,93.90
2022-10-30T20:53:46.005Z,94.10
2022-10-30T20:56:31.944Z,94.10
2022-10-30T20:59:17.906Z,94.10
2022-10-30T21:02:04.569Z,94.20
2022-10-30T21:04:51.100Z,94.00
2022-10-30T21:07:37.554Z,93.60
2022-10-30T21:10:29.344Z,93.50
2022-10-30T21:13:16.651Z,94.10
2022-10-30T21:16:05.278Z,93.30
2022-10-30T21:18:54.932Z,92.60
2022-10-30T21:21:40.856Z,92.80
2022-10-30T21:24:26.913Z,92.30
2022-10-30T21:27:12.927Z,92.30
2022-10-30T21:29:58.916Z,93.20
2022-10-30T21:32:44.996Z,93.50
2022-10-30T21:35:31.119Z,94.00
2022-10-30T21:38:16.960Z,94.20
2022-10-30T21:41:03.255Z,93.70
2022-10-30T21:43:54.600Z,93.40
2022-10-30T21:46:40.479Z,93.40
2022-10-30T21:49:26.432Z,93.60
2022-10-30T21:52:12.539Z,93.90
2022-10-30T21:54:58.608Z,93.60
2022-10-30T21:57:44.656Z,93.90
2022-10-30T22:00:31.195Z,93.90
2022-10-30T22:03:17.494Z,94.20
2022-10-30T22:06:10.705Z,94.20
2022-10-30T22:08:57.782Z,93.60
2022-10-30T22:11:44.555Z,93.90
2022-10-30T22:14:30.611Z,94.00
2022-10-30T22:17:16.654Z,93.90
2022-10-30T22:20:03.672Z,94.00
2022-10-30T22:22:49.442Z,93.00
2022-10-30T22:25:35.397Z,93.10
2022-10-30T22:28:21.361Z,92.90
2022-10-30T22:31:11.114Z,93.50
2022-10-30T22:34:00.555Z,94.30
2022-10-30T22:36:47.011Z,94.80
2022-10-30T22:39:33.224Z,94.70
2022-10-30T22:42:19.325Z,94.60
2022-10-30T22:45:05.603Z,94.60
2022-10-30T22:47:51.701Z,94.70
2022-10-30T22:50:39.188Z,94.80
2022-10-30T22:53:26.099Z,94.70
2022-10-30T22:56:20.794Z,93.70
2022-10-30T22:59:11.252Z,93.40
2022-10-30T23:01:57.168Z,94.30
2022-10-30T23:04:43.083Z,94.40
2022-10-30T23:07:29.147Z,94.20
2022-10-30T23:10:15.032Z,93.80
2022-10-30T23:13:01.236Z,94.10
2022-10-30T23:15:47.908Z,94.00
2022-10-30T23:18:34.940Z,94.00
2022-10-30T23:21:23.236Z,94.00
2022-10-30T23:24:09.649Z,93.90
2022-10-30T23:26:55.628Z,94.10
2022-10-30T23:29:41.628Z,92.80
2022-10-30T23:32:27.756Z,92.10
2022-10-30T23:35:13.699Z,93.30
2022-10-30T23:37:59.664Z,93.30
2022-10-30T23:40:45.662Z,93.50
2022-10-30T23:43:31.680Z,93.90
2022-10-30T23:46:17.772Z,94.30
2022-10-30T23:49:04.807Z,94.30
2022-10-30T23:51:50.709Z,94.30
2022-10-30T23:54:36.814Z,94.00
2022-10-30T23:57:22.662Z,94.50
